Time;durP1;ratioP1;P1;durP2;ratioP2;P2;SDS_P1;SDS_P2;PMS_P1;PMS_P2;Temp;Humidity;BMP_temperature;BMP_pressure;BME280_temperature;BME280_humidity;BME280_pressure;Samples;Min_cycle;Max_cycle;Signal;HPM_P1;HPM_P2
2022/04/05 00:02:00;;;;;;;1999.90;999.90;;;7.50;99.90;;;;;;5018518;28;20185;-73
2022/04/05 00:04:26;;;;;;;1999.90;999.90;;;7.50;99.90;;;;;;5018016;28;20546;-73
2022/04/05 00:06:51;;;;;;;1999.90;999.90;;;7.60;99.90;;;;;;5018466;28;20173;-72
2022/04/05 00:09:17;;;;;;;1999.90;999.90;;;7.60;99.90;;;;;;5018252;28;20185;-73
2022/04/05 00:11:43;;;;;;;1999.90;999.90;;;7.60;99.90;;;;;;5018321;28;20242;-72
2022/04/05 00:14:09;;;;;;;1999.90;999.90;;;7.60;99.90;;;;;;5017980;28;20182;-73
2022/04/05 00:16:34;;;;;;;1999.90;999.90;;;7.60;99.90;;;;;;5018236;28;20176;-73
2022/04/05 00:19:00;;;;;;;1999.90;999.90;;;7.60;99.90;;;;;;5018118;28;20424;-73
2022/04/05 00:21:26;;;;;;;1999.90;999.90;;;7.60;99.90;;;;;;5018165;28;20176;-72
2022/04/05 00:23:51;;;;;;;1999.90;999.90;;;7.70;99.90;;;;;;5018168;28;20173;-73
2022/04/05 00:26:17;;;;;;;1999.90;999.90;;;7.70;99.90;;;;;;5017830;28;20598;-73
2022/04/05 00:28:42;;;;;;;1999.90;999.90;;;7.70;99.90;;;;;;5018042;28;20247;-73
2022/04/05 00:31:08;;;;;;;1999.90;999.90;;;7.70;99.90;;;;;;5015184;28;20169;-73
2022/04/05 00:33:33;;;;;;;1999.90;999.90;;;7.70;99.90;;;;;;5014973;28;20169;-73
2022/04/05 00:35:59;;;;;;;1999.90;999.90;;;7.80;99.90;;;;;;5014747;28;20183;-73
2022/04/05 00:38:25;;;;;;;1999.90;999.90;;;7.80;99.90;;;;;;5014785;28;20193;-73
2022/04/05 00:40:51;;;;;;;1999.90;999.90;;;7.80;99.90;;;;;;5014835;28;20559;-73
2022/04/05 00:43:17;;;;;;;1999.90;999.90;;;7.80;99.90;;;;;;5014815;28;20422;-73
2022/04/05 00:45:42;;;;;;;1999.90;999.90;;;7.80;99.90;;;;;;5014445;28;20215;-73
2022/04/05 00:48:08;;;;;;;1999.90;999.90;;;7.80;99.90;;;;;;5014641;28;20188;-73
2022/04/05 00:50:38;;;;;;;1999.90;999.90;;;7.80;99.90;;;;;;5014662;28;20220;-73
2022/04/05 00:53:07;;;;;;;1999.90;999.90;;;7.80;99.90;;;;;;5014661;28;20188;-73
2022/04/05 00:55:33;;;;;;;1999.90;999.90;;;7.90;99.90;;;;;;5014321;28;20414;-73
2022/04/05 00:58:04;;;;;;;1999.90;999.90;;;7.80;99.90;;;;;;5014361;28;20445;-74
2022/04/05 01:00:31;;;;;;;1999.90;999.90;;;7.80;99.90;;;;;;5014571;28;20421;-73
2022/04/05 01:02:57;;;;;;;1999.90;999.90;;;7.90;99.90;;;;;;5014463;28;20435;-71
2022/04/05 01:05:25;;;;;;;1999.90;999.90;;;7.90;99.90;;;;;;5014012;28;20450;-70
2022/04/05 01:07:51;;;;;;;1999.90;999.90;;;7.90;99.90;;;;;;5014326;28;20453;-71
2022/04/05 01:10:17;;;;;;;1999.90;999.90;;;8.00;99.90;;;;;;5014334;28;20404;-71
2022/04/05 01:12:42;;;;;;;1999.90;999.90;;;8.00;99.90;;;;;;5014230;28;20419;-73
2022/04/05 01:15:09;;;;;;;1999.90;999.90;;;8.10;99.90;;;;;;5013927;28;20170;-73
2022/04/05 01:17:35;;;;;;;1999.90;999.90;;;8.10;99.90;;;;;;5014032;28;20554;-74
2022/04/05 01:20:01;;;;;;;1999.90;999.90;;;8.10;99.90;;;;;;5014105;28;20778;-73
2022/04/05 01:22:27;;;;;;;1999.90;999.90;;;8.20;99.90;;;;;;5014110;28;20416;-73
2022/04/05 01:24:53;;;;;;;1999.90;999.90;;;8.30;99.90;;;;;;5013706;28;20942;-73
2022/04/05 01:27:19;;;;;;;1999.90;999.90;;;8.30;99.90;;;;;;5013880;28;20547;-73
2022/04/05 01:29:47;;;;;;;1999.90;999.90;;;8.40;99.90;;;;;;5013965;28;20581;-73
2022/04/05 01:32:13;;;;;;;1999.90;999.90;;;8.40;99.90;;;;;;5013828;28;20419;-73
2022/04/05 01:34:39;;;;;;;1999.90;999.90;;;8.40;99.90;;;;;;5013514;28;20763;-73
2022/04/05 01:37:08;;;;;;;1999.90;999.90;;;8.50;99.90;;;;;;5013835;28;20412;-73
2022/04/05 01:39:36;;;;;;;1999.90;999.90;;;8.50;99.90;;;;;;5013713;28;20486;-73
2022/04/05 01:42:05;;;;;;;1999.90;999.90;;;8.50;99.90;;;;;;5013605;28;20898;-73
2022/04/05 01:44:34;;;;;;;1999.90;999.90;;;8.50;99.90;;;;;;5013263;28;20412;-73
2022/04/05 01:47:13;;;;;;;1999.90;999.90;;;8.50;99.90;;;;;;5013582;28;20873;-73
2022/04/05 01:49:40;;;;;;;1999.90;999.90;;;8.60;99.90;;;;;;5013523;28;20431;-73
2022/04/05 01:52:07;;;;;;;1999.90;999.90;;;8.60;99.90;;;;;;5013550;28;20474;-73
2022/04/05 01:54:33;;;;;;;1999.90;999.90;;;8.60;99.90;;;;;;5013151;28;20404;-73
2022/04/05 01:56:59;;;;;;;1999.90;999.90;;;8.70;99.90;;;;;;5013475;28;20482;-73
2022/04/05 01:59:27;;;;;;;1999.90;999.90;;;8.70;99.90;;;;;;5013253;28;20891;-73
2022/04/05 02:01:53;;;;;;;1999.90;999.90;;;8.70;99.90;;;;;;5013317;28;20416;-73
2022/04/05 02:04:19;;;;;;;1999.90;999.90;;;8.70;99.90;;;;;;5012982;28;20418;-73
2022/04/05 02:06:45;;;;;;;1999.90;999.90;;;8.70;99.90;;;;;;5013312;28;20165;-73
2022/04/05 02:09:14;;;;;;;1999.90;999.90;;;8.80;99.90;;;;;;5013165;28;20194;-73
2022/04/05 02:11:44;;;;;;;1999.90;999.90;;;8.80;99.90;;;;;;5013213;28;20428;-73
2022/04/05 02:14:11;;;;;;;1999.90;999.90;;;8.80;99.90;;;;;;5012841;28;20829;-74
2022/04/05 02:16:36;;;;;;;1999.90;999.90;;;8.80;99.90;;;;;;5012943;28;20451;-73
2022/04/05 02:19:02;;;;;;;1999.90;999.90;;;8.80;99.90;;;;;;5013032;28;20890;-73
2022/04/05 02:21:28;;;;;;;1999.90;999.90;;;8.80;99.90;;;;;;5013017;28;20210;-74
2022/04/05 02:23:53;;;;;;;1999.90;999.90;;;8.80;99.90;;;;;;5012956;28;20542;-73
2022/04/05 02:26:19;;;;;;;1999.90;999.90;;;8.90;99.90;;;;;;5012634;28;20237;-73
2022/04/05 02:28:44;;;;;;;1999.90;999.90;;;8.90;99.90;;;;;;5012775;28;20204;-73
2022/04/05 02:31:10;;;;;;;1999.90;999.90;;;8.90;99.90;;;;;;5012878;28;20249;-74
2022/04/05 02:33:36;;;;;;;1999.90;999.90;;;8.90;99.90;;;;;;5012819;28;20170;-74
2022/04/05 02:36:03;;;;;;;1999.90;999.90;;;8.90;99.90;;;;;;5012491;28;20174;-74
2022/04/05 02:38:29;;;;;;;1999.90;999.90;;;8.90;99.90;;;;;;5012752;28;20742;-74
2022/04/05 02:40:57;;;;;;;1999.90;999.90;;;8.90;99.90;;;;;;5012706;28;20444;-74
2022/04/05 02:43:26;;;;;;;1999.90;999.90;;;8.90;99.90;;;;;;5012626;28;20821;-74
2022/04/05 02:45:55;;;;;;;1999.90;999.90;;;9.00;99.90;;;;;;5012301;28;20520;-74
2022/04/05 02:48:21;;;;;;;1999.90;999.90;;;8.90;99.90;;;;;;5011225;28;20855;-74
2022/04/05 02:50:47;;;;;;;1999.90;999.90;;;8.90;99.90;;;;;;5012576;28;20493;-74
2022/04/05 02:53:12;;;;;;;1999.90;999.90;;;9.00;99.90;;;;;;5012084;28;20473;-74
2022/04/05 02:55:38;;;;;;;1999.90;999.90;;;9.00;99.90;;;;;;5012089;28;20537;-74
2022/04/05 02:58:03;;;;;;;1999.90;999.90;;;9.00;99.90;;;;;;5012222;28;20215;-74
2022/04/05 03:00:29;;;;;;;1999.90;999.90;;;9.00;99.90;;;;;;5012366;28;20212;-74
2022/04/05 03:02:55;;;;;;;1999.90;999.90;;;9.10;99.90;;;;;;5012424;28;20177;-74
2022/04/05 03:05:22;;;;;;;1999.90;999.90;;;9.10;99.90;;;;;;5011968;28;20753;-74
2022/04/05 03:07:48;;;;;;;1999.90;999.90;;;9.10;99.90;;;;;;5012240;28;20187;-74
2022/04/05 03:10:13;;;;;;;1999.90;999.90;;;9.10;99.90;;;;;;5012366;28;20855;-74
2022/04/05 03:12:39;;;;;;;1999.90;999.90;;;9.10;99.90;;;;;;5012229;28;20474;-74
2022/04/05 03:15:07;;;;;;;1999.90;999.90;;;9.10;99.90;;;;;;5011946;28;20249;-74
2022/04/05 03:17:34;;;;;;;1999.90;999.90;;;9.10;99.90;;;;;;5012178;28;20424;-74
2022/04/05 03:20:01;;;;;;;1999.90;999.90;;;9.10;99.90;;;;;;5012166;28;20408;-74
2022/04/05 03:22:26;;;;;;;1999.90;999.90;;;9.10;99.90;;;;;;5012161;28;20416;-74
2022/04/05 03:24:52;;;;;;;1999.90;999.90;;;9.20;99.90;;;;;;5011732;28;20824;-74
2022/04/05 03:27:18;;;;;;;1999.90;999.90;;;9.20;99.90;;;;;;5012080;28;20621;-74
2022/04/05 03:29:43;;;;;;;1999.90;999.90;;;9.10;99.90;;;;;;5012119;28;20209;-74
2022/04/05 03:32:11;;;;;;;1999.90;999.90;;;9.20;99.90;;;;;;5012121;28;20406;-74
2022/04/05 03:34:37;;;;;;;1999.90;999.90;;;9.20;99.90;;;;;;5011828;28;20222;-74
2022/04/05 03:37:04;;;;;;;1999.90;999.90;;;9.20;99.90;;;;;;5012058;28;20776;-74
2022/04/05 03:39:29;;;;;;;1999.90;999.90;;;9.20;99.90;;;;;;5011923;28;20429;-74
2022/04/05 03:41:55;;;;;;;1999.90;999.90;;;9.20;99.90;;;;;;5011973;28;20427;-75
2022/04/05 03:44:21;;;;;;;1999.90;999.90;;;9.20;99.90;;;;;;5011808;28;20290;-75
2022/04/05 03:46:47;;;;;;;1999.90;999.90;;;9.30;99.90;;;;;;5012051;28;20172;-75
2022/04/05 03:49:12;;;;;;;1999.90;999.90;;;9.30;99.90;;;;;;5011962;28;20188;-75
2022/04/05 03:51:38;;;;;;;1999.90;999.90;;;9.30;99.90;;;;;;5012031;28;20405;-75
2022/04/05 03:54:03;;;;;;;1999.90;999.90;;;9.30;99.90;;;;;;5011713;28;20226;-74
2022/04/05 03:56:29;;;;;;;1999.90;999.90;;;9.40;99.90;;;;;;5012022;28;20176;-74
2022/04/05 03:58:55;;;;;;;1999.90;999.90;;;9.40;99.90;;;;;;5011809;28;20708;-75
2022/04/05 04:01:20;;;;;;;1999.90;999.90;;;9.40;99.90;;;;;;5012018;28;20171;-74
2022/04/05 04:03:46;;;;;;;1999.90;999.90;;;9.40;99.90;;;;;;5012086;28;20171;-74
2022/04/05 04:06:11;;;;;;;1999.90;999.90;;;9.40;99.90;;;;;;5012841;28;20577;-74
2022/04/05 04:08:37;;;;;;;1999.90;999.90;;;9.40;99.90;;;;;;5015381;28;20713;-75
2022/04/05 04:11:03;;;;;;;1999.90;999.90;;;9.40;99.90;;;;;;5015506;28;20205;-75
2022/04/05 04:13:29;;;;;;;1999.90;999.90;;;9.50;99.90;;;;;;5015700;28;20176;-74
2022/04/05 04:15:58;;;;;;;1999.90;999.90;;;9.50;99.90;;;;;;5015567;28;20412;-75
2022/04/05 04:18:24;;;;;;;1999.90;999.90;;;9.50;99.90;;;;;;5015280;28;20429;-75
2022/04/05 04:20:49;;;;;;;1999.90;999.90;;;9.50;99.90;;;;;;5015387;28;20417;-75
2022/04/05 04:23:16;;;;;;;1999.90;999.90;;;9.50;99.90;;;;;;5015324;28;20170;-75
2022/04/05 04:25:42;;;;;;;1999.90;999.90;;;9.50;99.90;;;;;;5014869;28;20197;-75
2022/04/05 04:28:09;;;;;;;1999.90;999.90;;;9.50;99.90;;;;;;5015133;28;20439;-75
2022/04/05 04:30:36;;;;;;;1999.90;999.90;;;9.50;99.90;;;;;;5015377;28;20402;-74
2022/04/05 04:33:02;;;;;;;1999.90;999.90;;;9.50;99.90;;;;;;5015210;28;20409;-74
2022/04/05 04:35:28;;;;;;;1999.90;999.90;;;9.60;99.90;;;;;;5014966;28;20420;-74
2022/04/05 04:37:54;;;;;;;1999.90;999.90;;;9.70;99.90;;;;;;5014818;28;20797;-74
2022/04/05 04:40:20;;;;;;;1999.90;999.90;;;9.60;99.90;;;;;;5014940;28;20414;-74
2022/04/05 04:42:46;;;;;;;1999.90;999.90;;;9.60;99.90;;;;;;5014852;28;20832;-74
2022/04/05 04:45:12;;;;;;;1999.90;999.90;;;9.60;99.90;;;;;;5014428;28;20453;-74
2022/04/05 04:47:39;;;;;;;1999.90;999.90;;;9.70;99.90;;;;;;5014792;28;20569;-74
2022/04/05 04:50:06;;;;;;;1999.90;999.90;;;9.60;99.90;;;;;;5014758;28;20417;-74
2022/04/05 04:52:32;;;;;;;1999.90;999.90;;;9.60;99.90;;;;;;5014711;28;20449;-74
2022/04/05 04:54:57;;;;;;;1999.90;999.90;;;9.60;99.90;;;;;;5014378;28;20453;-74
2022/04/05 04:57:25;;;;;;;1999.90;999.90;;;9.60;99.90;;;;;;5014328;28;20175;-74
2022/04/05 04:59:51;;;;;;;1999.90;999.90;;;9.60;99.90;;;;;;5014606;28;20694;-74
2022/04/05 05:02:17;;;;;;;1999.90;999.90;;;9.60;99.90;;;;;;5014478;28;20411;-74
2022/04/05 05:04:42;;;;;;;1999.90;999.90;;;9.70;99.90;;;;;;5014043;28;20599;-74
2022/04/05 05:07:08;;;;;;;1999.90;999.90;;;9.70;99.90;;;;;;5014262;28;20787;-74
2022/04/05 05:09:34;;;;;;;1999.90;999.90;;;9.70;99.90;;;;;;5014297;28;20202;-74
2022/04/05 05:12:00;;;;;;;1999.90;999.90;;;9.70;99.90;;;;;;5014284;28;20186;-74
2022/04/05 05:14:27;;;;;;;1999.90;999.90;;;9.70;99.90;;;;;;5013953;28;20167;-75
2022/04/05 05:16:53;;;;;;;1999.90;999.90;;;9.70;99.90;;;;;;5013752;28;20403;-74
2022/04/05 05:19:20;;;;;;;1999.90;999.90;;;9.80;99.90;;;;;;5012817;28;20434;-74
2022/04/05 05:21:46;;;;;;;1999.90;999.90;;;9.80;99.90;;;;;;5014170;28;20853;-74
2022/04/05 05:24:11;;;;;;;1999.90;999.90;;;9.80;99.90;;;;;;5013814;28;20405;-74
2022/04/05 05:26:37;;;;;;;1999.90;999.90;;;9.80;99.90;;;;;;5013931;28;20210;-74
2022/04/05 05:29:03;;;;;;;1999.90;999.90;;;9.80;99.90;;;;;;5013939;28;20187;-74
2022/04/05 05:31:28;;;;;;;1999.90;999.90;;;9.80;99.90;;;;;;5014021;28;20568;-73
2022/04/05 05:33:54;;;;;;;1999.90;999.90;;;9.70;99.90;;;;;;5013870;28;20409;-73
2022/04/05 05:36:20;;;;;;;1999.90;999.90;;;9.80;99.90;;;;;;5013520;28;20600;-73
2022/04/05 05:38:45;;;;;;;1999.90;999.90;;;9.80;99.90;;;;;;5013774;28;20195;-73
2022/04/05 05:41:11;;;;;;;1999.90;999.90;;;9.80;99.90;;;;;;5013735;28;20257;-73
2022/04/05 05:43:38;;;;;;;1999.90;999.90;;;9.80;99.90;;;;;;5013795;28;20200;-73
2022/04/05 05:46:05;;;;;;;1999.90;999.90;;;9.90;99.90;;;;;;5013384;28;20988;-74
2022/04/05 05:48:30;;;;;;;1999.90;999.90;;;9.90;99.90;;;;;;5013591;28;20430;-74
2022/04/05 05:50:56;;;;;;;1999.90;999.90;;;9.80;99.90;;;;;;5013525;28;20434;-74
2022/04/05 05:53:22;;;;;;;1999.90;999.90;;;9.90;99.90;;;;;;5013555;28;20411;-74
2022/04/05 05:55:48;;;;;;;1999.90;999.90;;;9.90;99.90;;;;;;5013268;28;20186;-74
2022/04/05 05:58:14;;;;;;;1999.90;999.90;;;9.90;99.90;;;;;;5013264;28;20222;-74
2022/04/05 06:00:40;;;;;;;1999.90;999.90;;;9.90;99.90;;;;;;5012143;28;20790;-74
2022/04/05 06:03:05;;;;;;;1999.90;999.90;;;9.90;99.90;;;;;;5013405;28;20425;-71
2022/04/05 06:05:31;;;;;;;1999.90;999.90;;;9.90;99.90;;;;;;5012910;28;20305;-71
2022/04/05 06:07:57;;;;;;;1999.90;999.90;;;9.90;99.90;;;;;;5013154;28;20188;-72
2022/04/05 06:10:24;;;;;;;1999.90;999.90;;;10.00;99.90;;;;;;5013157;28;20403;-71
2022/04/05 06:12:51;;;;;;;1999.90;999.90;;;9.90;99.90;;;;;;5013178;28;20405;-71
2022/04/05 06:15:18;;;;;;;1999.90;999.90;;;9.90;99.90;;;;;;5012892;28;20441;-71
2022/04/05 06:17:46;;;;;;;1999.90;999.90;;;9.90;99.90;;;;;;5013045;28;20875;-71
2022/04/05 06:20:14;;;;;;;1999.90;999.90;;;9.90;99.90;;;;;;5013059;28;20859;-71
2022/04/05 06:22:41;;;;;;;1999.90;999.90;;;9.90;99.90;;;;;;5013091;28;20466;-71
2022/04/05 06:25:07;;;;;;;1999.90;999.90;;;10.00;99.90;;;;;;5012665;28;20913;-71
2022/04/05 06:27:33;;;;;;;1999.90;999.90;;;10.00;99.90;;;;;;5012819;28;20896;-71
2022/04/05 06:29:59;;;;;;;1999.90;999.90;;;10.00;99.90;;;;;;5012166;28;20422;-71
2022/04/05 06:32:24;;;;;;;1999.90;999.90;;;10.00;99.90;;;;;;5012865;28;20168;-71
2022/04/05 06:34:50;;;;;;;1999.90;999.90;;;10.00;99.90;;;;;;5012541;28;20582;-71
2022/04/05 06:37:16;;;;;;;1999.90;999.90;;;10.00;99.90;;;;;;5012733;28;20191;-71
2022/04/05 06:39:41;;;;;;;1999.90;999.90;;;10.00;99.90;;;;;;5012642;28;20195;-71
2022/04/05 06:42:07;;;;;;;1999.90;999.90;;;10.00;99.90;;;;;;5012718;28;20443;-71
2022/04/05 06:44:32;;;;;;;1999.90;999.90;;;10.00;99.90;;;;;;5012298;28;20622;-71
2022/04/05 06:46:58;;;;;;;1999.90;999.90;;;10.00;99.90;;;;;;5012575;28;20172;-71
2022/04/05 06:49:24;;;;;;;1999.90;999.90;;;10.10;99.90;;;;;;5012496;28;20263;-71
2022/04/05 06:51:49;;;;;;;1999.90;999.90;;;10.10;99.90;;;;;;5012575;28;20169;-71
2022/04/05 06:54:15;;;;;;;1999.90;999.90;;;10.00;99.90;;;;;;5012224;28;20222;-71
2022/04/05 06:56:40;;;;;;;1999.90;999.90;;;10.10;99.90;;;;;;5012578;28;20203;-71
2022/04/05 06:59:06;;;;;;;1999.90;999.90;;;10.10;99.90;;;;;;5012258;28;20222;-71
2022/04/05 07:01:32;;;;;;;1999.90;999.90;;;10.10;99.90;;;;;;5012418;28;20537;-71
2022/04/05 07:03:59;;;;;;;1999.90;999.90;;;10.10;99.90;;;;;;5012358;28;20255;-70
2022/04/05 07:06:25;;;;;;;1999.90;999.90;;;10.10;99.90;;;;;;5011101;28;20552;-72
2022/04/05 07:08:50;;;;;;;1999.90;999.90;;;10.20;99.90;;;;;;5012315;28;20864;-72
2022/04/05 07:11:16;;;;;;;1999.90;999.90;;;10.20;99.90;;;;;;5012232;28;20174;-72
2022/04/05 07:13:42;;;;;;;1999.90;999.90;;;10.10;99.90;;;;;;5012238;28;20175;-72
2022/04/05 07:16:08;;;;;;;1999.90;999.90;;;10.20;99.90;;;;;;5011962;28;20415;-72
2022/04/05 07:18:33;;;;;;;1999.90;999.90;;;10.20;99.90;;;;;;5012145;28;20217;-72
2022/04/05 07:21:01;;;;;;;1999.90;999.90;;;10.20;99.90;;;;;;5012240;28;20181;-72
2022/04/05 07:23:26;;;;;;;1999.90;999.90;;;10.20;99.90;;;;;;5012211;28;20621;-72
2022/04/05 07:25:52;;;;;;;1999.90;999.90;;;10.20;99.90;;;;;;5011833;28;20486;-73
2022/04/05 07:28:17;;;;;;;1999.90;999.90;;;10.20;99.90;;;;;;5012044;28;20658;-73
2022/04/05 07:30:43;;;;;;;1999.90;999.90;;;10.20;99.90;;;;;;5012134;28;20175;-72
2022/04/05 07:33:09;;;;;;;1999.90;999.90;;;10.20;99.90;;;;;;5012306;28;20167;-72
2022/04/05 07:35:35;;;;;;;1999.90;999.90;;;10.20;99.90;;;;;;5011841;28;20642;-72
2022/04/05 07:38:00;;;;;;;1999.90;999.90;;;10.20;99.90;;;;;;5011960;28;20427;-72
2022/04/05 07:40:47;;;;;;;1999.90;999.90;;;10.20;99.90;;;;;;5013936;28;20183;-72
2022/04/05 07:43:11;;;;;;;1999.90;999.90;;;10.30;99.90;;;;;;5016076;28;20575;-72
2022/04/05 07:45:37;;;;;;;1999.90;999.90;;;10.30;99.90;;;;;;5015755;28;20532;-72
2022/04/05 07:48:03;;;;;;;1999.90;999.90;;;10.30;99.90;;;;;;5016011;28;20197;-72
2022/04/05 07:50:29;;;;;;;1999.90;999.90;;;10.30;99.90;;;;;;5016043;28;20542;-72
2022/04/05 07:52:54;;;;;;;1999.90;999.90;;;10.30;99.90;;;;;;5015904;28;20409;-72
2022/04/05 07:55:20;;;;;;;1999.90;999.90;;;10.30;99.90;;;;;;5015526;28;20596;-72
2022/04/05 07:57:47;;;;;;;1999.90;999.90;;;10.20;99.90;;;;;;5015524;28;20210;-72
2022/04/05 08:00:13;;;;;;;1999.90;999.90;;;10.30;99.90;;;;;;5015631;28;20441;-73
2022/04/05 08:02:39;;;;;;;1999.90;999.90;;;10.30;99.90;;;;;;5015654;28;20811;-73
2022/04/05 08:05:06;;;;;;;1999.90;999.90;;;10.40;99.90;;;;;;5015218;28;20577;-73
2022/04/05 08:07:31;;;;;;;1999.90;999.90;;;10.40;99.90;;;;;;5015763;28;20415;-73
2022/04/05 08:09:58;;;;;;;1999.90;999.90;;;10.40;99.90;;;;;;5015517;28;20411;-73
2022/04/05 08:12:23;;;;;;;1999.90;999.90;;;10.50;99.90;;;;;;5015419;28;20661;-73
2022/04/05 08:14:49;;;;;;;1999.90;999.90;;;10.50;99.90;;;;;;5015091;28;20410;-74
2022/04/05 08:17:15;;;;;;;1999.90;999.90;;;10.60;99.90;;;;;;5015368;28;20168;-73
2022/04/05 08:19:40;;;;;;;1999.90;999.90;;;10.60;99.90;;;;;;5015258;28;20216;-74
2022/04/05 08:22:08;;;;;;;1999.90;999.90;;;10.60;99.90;;;;;;5015176;28;20209;-74
2022/04/05 08:24:34;;;;;;;1999.90;999.90;;;10.70;99.90;;;;;;5014942;28;20190;-74
2022/04/05 08:27:00;;;;;;;1999.90;999.90;;;10.70;99.90;;;;;;5015136;28;20487;-74
2022/04/05 08:29:26;;;;;;;1999.90;999.90;;;10.80;99.90;;;;;;5015049;28;20425;-73
2022/04/05 08:31:52;;;;;;;1999.90;999.90;;;10.80;99.90;;;;;;5015265;28;20415;-73
2022/04/05 08:34:18;;;;;;;1999.90;999.90;;;10.90;99.90;;;;;;5014808;28;20434;-74
2022/04/05 08:36:44;;;;;;;1999.90;999.90;;;11.00;99.90;;;;;;5014957;28;20408;-73
2022/04/05 08:39:10;;;;;;;1999.90;999.90;;;11.00;99.90;;;;;;5014857;28;20438;-73
2022/04/05 08:41:37;;;;;;;1999.90;999.90;;;11.10;99.90;;;;;;5014924;28;20407;-74
2022/04/05 08:44:04;;;;;;;1999.90;999.90;;;11.10;99.90;;;;;;5014639;28;20238;-74
2022/04/05 08:46:34;;;;;;;1999.90;999.90;;;11.10;99.90;;;;;;5014687;28;21041;-74
2022/04/05 08:49:00;;;;;;;1999.90;999.90;;;11.20;99.90;;;;;;5014833;28;20526;-75
2022/04/05 08:51:26;;;;;;;1999.90;999.90;;;11.20;99.90;;;;;;5013852;28;20450;-75
2022/04/05 08:53:52;;;;;;;1999.90;999.90;;;11.30;99.90;;;;;;5014766;28;20408;-75
2022/04/05 08:56:17;;;;;;;1999.90;999.90;;;11.40;99.90;;;;;;5014340;28;20405;-74
2022/04/05 08:58:43;;;;;;;1999.90;999.90;;;11.50;99.90;;;;;;5014452;28;20979;-74
2022/04/05 09:01:09;;;;;;;1999.90;999.90;;;11.50;99.90;;;;;;5013280;28;20192;-74
2022/04/05 09:03:35;;;;;;;1999.90;999.90;;;11.60;99.90;;;;;;5014527;28;20176;-73
2022/04/05 09:06:28;;;;;;;1999.90;999.90;;;11.60;99.90;;;;;;5014104;28;20694;-74
2022/04/05 09:09:10;;;;;;;1999.90;999.90;;;11.60;99.90;;;;;;5003706;28;20436;-74
2022/04/05 09:11:41;;;;;;;1999.90;999.90;;;11.70;99.90;;;;;;5013128;28;20413;-74
2022/04/05 09:14:07;;;;;;;1999.90;999.90;;;11.70;99.90;;;;;;5013019;28;20412;-73
2022/04/05 09:16:34;;;;;;;1999.90;999.90;;;11.60;99.90;;;;;;5013447;28;20461;-73
2022/04/05 09:19:08;;;;;;;1999.90;999.90;;;11.60;99.90;;;;;;5013992;28;20192;-73
2022/04/05 09:21:55;;;;;;;1999.90;999.90;;;11.60;99.90;;;;;;5014127;28;20928;-74
2022/04/05 09:24:31;;;;;;;1999.90;999.90;;;11.60;99.90;;;;;;5012907;28;20422;-72
2022/04/05 09:26:57;;;;;;;1999.90;999.90;;;11.60;99.90;;;;;;5014122;28;20446;-74
2022/04/05 09:29:40;;;;;;;1999.90;999.90;;;11.60;99.90;;;;;;5013927;28;20840;-73
2022/04/05 09:32:07;;;;;;;1999.90;999.90;;;11.50;99.90;;;;;;5009910;28;20454;-74
2022/04/05 09:34:33;;;;;;;1999.90;999.90;;;11.50;99.90;;;;;;5012985;28;20495;-73
2022/04/05 09:37:08;;;;;;;1999.90;999.90;;;11.50;99.90;;;;;;5011726;28;20944;-74
2022/04/05 09:39:34;;;;;;;1999.90;999.90;;;11.50;99.90;;;;;;5013170;28;20434;-74
2022/04/05 09:42:06;;;;;;;1999.90;999.90;;;11.50;99.90;;;;;;5013399;28;20411;-74
2022/04/05 09:44:34;;;;;;;1999.90;999.90;;;11.40;99.90;;;;;;5012836;28;20688;-74
2022/04/05 09:47:22;;;;;;;1999.90;999.90;;;11.50;99.90;;;;;;5013098;28;20814;-73
2022/04/05 09:49:49;;;;;;;1999.90;999.90;;;11.40;99.90;;;;;;5013109;28;20466;-73
2022/04/05 09:52:25;;;;;;;1999.90;999.90;;;11.40;99.90;;;;;;5013275;28;20743;-73
2022/04/05 09:54:51;;;;;;;1999.90;999.90;;;11.40;99.90;;;;;;5013646;28;20433;-73
2022/04/05 09:57:29;;;;;;;1999.90;999.90;;;11.20;99.90;;;;;;5013476;28;20411;-73
2022/04/05 10:00:10;;;;;;;1999.90;999.90;;;11.10;99.90;;;;;;5009985;28;20430;-74
2022/04/05 10:02:36;;;;;;;1999.90;999.90;;;11.00;99.90;;;;;;5012654;28;20404;-72
2022/04/05 10:05:06;;;;;;;1999.90;999.90;;;10.90;99.90;;;;;;5010743;28;20455;-71
2022/04/05 10:07:33;;;;;;;1999.90;999.90;;;11.00;99.90;;;;;;5007306;28;20159;-71
2022/04/05 10:10:00;;;;;;;1999.90;999.90;;;10.90;99.90;;;;;;5012671;28;20922;-71
2022/04/05 10:12:26;;;;;;;1999.90;999.90;;;10.90;99.90;;;;;;5012542;28;20410;-71
2022/04/05 10:14:52;;;;;;;1999.90;999.90;;;11.00;99.90;;;;;;5011477;28;20922;-71
2022/04/05 10:17:20;;;;;;;1999.90;999.90;;;11.00;99.90;;;;;;5012629;28;20423;-71
2022/04/05 10:19:49;;;;;;;1999.90;999.90;;;11.10;99.90;;;;;;5012301;28;20490;-71
2022/04/05 10:22:17;;;;;;;1999.90;999.90;;;11.10;99.90;;;;;;5011856;28;20412;-72
2022/04/05 10:24:45;;;;;;;1999.90;999.90;;;11.10;99.90;;;;;;5011600;28;20415;-72
2022/04/05 10:27:11;;;;;;;1999.90;999.90;;;11.20;99.90;;;;;;5012429;28;20422;-72
2022/04/05 10:29:38;;;;;;;1999.90;999.90;;;11.30;99.90;;;;;;5011664;28;20430;-72
2022/04/05 10:32:33;;;;;;;1999.90;999.90;;;11.50;99.90;;;;;;5012243;28;20404;-72
2022/04/05 10:35:05;;;;;;;1999.90;999.90;;;11.60;99.90;;;;;;5011511;28;21165;-72
2022/04/05 10:37:37;;;;;;;1999.90;999.90;;;11.70;99.90;;;;;;5012183;28;20427;-72
2022/04/05 10:40:03;;;;;;;1999.90;999.90;;;11.70;99.90;;;;;;5012168;28;20407;-72
2022/04/05 10:42:35;;;;;;;1999.90;999.90;;;11.70;99.90;;;;;;5012075;28;20414;-72
2022/04/05 10:45:12;;;;;;;1999.90;999.90;;;11.80;99.90;;;;;;5011099;28;20333;-72
2022/04/05 10:48:13;;;;;;;1999.90;999.90;;;11.90;99.90;;;;;;5012075;28;20423;-73
2022/04/05 10:50:43;;;;;;;1999.90;999.90;;;11.90;99.90;;;;;;5012107;28;20403;-73
2022/04/05 10:53:31;;;;;;;1999.90;999.90;;;12.00;99.90;;;;;;5011636;28;20396;-72
2022/04/05 10:56:03;;;;;;;1999.90;999.90;;;12.10;99.90;;;;;;5011351;28;20391;-73
2022/04/05 10:58:30;;;;;;;1999.90;999.90;;;12.20;99.90;;;;;;5011739;28;20439;-73
2022/04/05 11:01:18;;;;;;;1999.90;999.90;;;12.20;99.90;;;;;;5011732;28;20779;-73
2022/04/05 11:04:09;;;;;;;1999.90;999.90;;;12.10;99.90;;;;;;5011692;28;20418;-73
2022/04/05 11:07:03;;;;;;;1999.90;999.90;;;12.00;99.90;;;;;;5011685;28;20481;-73
2022/04/05 11:09:34;;;;;;;1999.90;999.90;;;12.10;99.90;;;;;;5004868;28;20513;-73
2022/04/05 11:12:06;;;;;;;1999.90;999.90;;;12.10;99.90;;;;;;5011638;28;20422;-73
2022/04/05 11:14:50;;;;;;;1999.90;999.90;;;12.20;99.90;;;;;;5010155;28;20415;-73
2022/04/05 11:17:18;;;;;;;1999.90;999.90;;;12.10;99.90;;;;;;5010732;28;20781;-73
2022/04/05 11:19:47;;;;;;;1999.90;999.90;;;12.10;99.90;;;;;;5011686;28;20432;-73
2022/04/05 11:22:21;;;;;;;1999.90;999.90;;;12.10;99.90;;;;;;5011296;28;20411;-73
2022/04/05 11:25:07;;;;;;;1999.90;999.90;;;12.20;99.90;;;;;;5010968;28;20421;-73
2022/04/05 11:27:47;;;;;;;1999.90;999.90;;;12.20;99.90;;;;;;5011723;28;20400;-73
2022/04/05 11:30:28;;;;;;;1999.90;999.90;;;12.30;99.90;;;;;;5011527;28;20502;-72
2022/04/05 11:33:12;;;;;;;1999.90;999.90;;;12.40;99.90;;;;;;5011673;28;20562;-72
2022/04/05 11:35:42;;;;;;;1999.90;999.90;;;12.50;99.90;;;;;;5009657;28;20582;-73
2022/04/05 11:38:18;;;;;;;1999.90;999.90;;;12.40;99.90;;;;;;5011270;28;20458;-72
2022/04/05 11:40:46;;;;;;;1999.90;999.90;;;12.50;99.90;;;;;;5011573;28;20387;-73
2022/04/05 11:43:30;;;;;;;1999.90;999.90;;;12.50;99.90;;;;;;5011703;28;20404;-73
2022/04/05 11:45:59;;;;;;;1999.90;999.90;;;12.50;99.90;;;;;;5010473;28;20453;-74
2022/04/05 11:48:26;;;;;;;1999.90;999.90;;;12.60;99.90;;;;;;5011387;28;20929;-73
2022/04/05 11:50:52;;;;;;;1999.90;999.90;;;12.60;99.90;;;;;;5011654;28;20845;-73
2022/04/05 11:53:22;;;;;;;1999.90;999.90;;;12.60;99.90;;;;;;5010981;28;20463;-74
2022/04/05 11:56:12;;;;;;;1999.90;999.90;;;12.60;99.90;;;;;;5010702;28;20419;-73
2022/04/05 11:58:41;;;;;;;1999.90;999.90;;;12.60;99.90;;;;;;5010932;28;20451;-73
2022/04/05 12:01:08;;;;;;;1999.90;999.90;;;12.80;99.90;;;;;;5011471;28;20813;-73
2022/04/05 12:03:44;;;;;;;1999.90;999.90;;;12.80;99.90;;;;;;5010162;28;20418;-73
2022/04/05 12:06:09;;;;;;;1999.90;999.90;;;12.90;99.90;;;;;;5010258;28;21247;-73
2022/04/05 12:08:35;;;;;;;1999.90;999.90;;;12.90;99.90;;;;;;5011212;28;20436;-73